Terminal Aerodrome Forecast
Issued by NWS

Home | Current Version | Previous Version | Text Only | Print | Product List | Glossary On
Versions: 1 2 3 4 5 6 7 8 9 10 11 12 13 14 15 16 17 18 19 20 21 22 23 24
000
FTUS44 KLIX 180249 AAC
TAFGPT
TAF AMD
KGPT 180249Z 1803/1824 16004KT 2SM BR OVC002
      TEMPO 1803/1805 3/4SM BR
     FM180500 14004KT 1/2SM FG VV002
     FM181600 15005KT P6SM BKN008
     FM181800 16005KT P6SM BKN010=

USA.gov is the U.S. government's official web portal to all federal, state and local government web resources and services.